createdAt,value
2017-11-04T00:01:36.141Z,35.20
2017-11-04T00:04:07.303Z,34.77
2017-11-04T00:06:39.206Z,32.83
2017-11-04T00:09:09.941Z,36.00
2017-11-04T00:11:39.320Z,35.33
2017-11-04T00:14:08.351Z,35.20
2017-11-04T00:16:38.531Z,31.13
2017-11-04T00:19:07.624Z,33.63
2017-11-04T00:21:37.578Z,39.23
2017-11-04T00:24:06.739Z,32.00
2017-11-04T00:26:36.032Z,36.20
2017-11-04T00:29:05.641Z,43.33
2017-11-04T00:31:35.315Z,38.63
2017-11-04T00:34:04.328Z,33.93
2017-11-04T00:36:33.063Z,36.03
2017-11-04T00:39:02.262Z,35.63
2017-11-04T00:41:31.786Z,34.00
2017-11-04T00:44:01.134Z,43.93
2017-11-04T00:46:30.705Z,38.37
2017-11-04T00:49:00.020Z,44.30
2017-11-04T00:51:28.876Z,36.70
2017-11-04T00:53:57.673Z,40.93
2017-11-04T00:56:26.446Z,36.80
2017-11-04T00:58:55.105Z,39.10
2017-11-04T01:01:24.178Z,38.60
2017-11-04T01:03:52.903Z,35.80
2017-11-04T01:06:21.809Z,38.20
2017-11-04T01:08:50.650Z,44.90
2017-11-04T01:11:20.186Z,40.73
2017-11-04T01:13:49.649Z,37.53
2017-11-04T01:16:18.717Z,42.03
2017-11-04T01:18:47.844Z,41.93
2017-11-04T01:21:16.979Z,42.43
2017-11-04T01:23:47.018Z,33.90
2017-11-04T01:26:15.885Z,41.53
2017-11-04T01:28:45.161Z,41.00
2017-11-04T01:31:13.827Z,44.33
2017-11-04T01:33:42.824Z,44.87
2017-11-04T01:36:11.513Z,39.17
2017-11-04T01:38:40.182Z,36.50
2017-11-04T01:41:08.920Z,39.87
2017-11-04T01:43:37.599Z,36.30
2017-11-04T01:46:06.340Z,36.40
2017-11-04T01:48:34.264Z,41.37
2017-11-04T01:51:02.642Z,41.23
2017-11-04T01:53:30.187Z,37.87
2017-11-04T01:55:58.845Z,38.43
2017-11-04T01:58:27.551Z,37.53
2017-11-04T02:00:56.254Z,36.87
2017-11-04T02:03:24.950Z,38.20
2017-11-04T02:05:53.376Z,39.57
2017-11-04T02:08:21.743Z,38.27
2017-11-04T02:10:50.405Z,46.30
2017-11-04T02:13:19.113Z,43.30
2017-11-04T02:15:47.781Z,36.67
2017-11-04T02:18:16.507Z,36.37
2017-11-04T02:20:45.526Z,38.77
2017-11-04T02:23:14.181Z,39.60
2017-11-04T02:25:42.922Z,37.10
2017-11-04T02:28:11.659Z,42.20
2017-11-04T02:30:40.478Z,46.83
2017-11-04T02:33:09.172Z,42.43
2017-11-04T02:35:37.889Z,41.60
2017-11-04T02:38:06.560Z,42.73
2017-11-04T02:40:35.284Z,41.10
2017-11-04T02:43:03.948Z,45.33
2017-11-04T02:45:32.638Z,34.97
2017-11-04T02:48:01.359Z,32.53
2017-11-04T02:50:30.025Z,37.30
2017-11-04T02:52:58.666Z,36.17
2017-11-04T02:55:27.446Z,35.97
2017-11-04T02:57:55.953Z,37.03
2017-11-04T03:00:24.669Z,40.90
2017-11-04T03:02:53.371Z,40.23
2017-11-04T03:05:21.824Z,43.97
2017-11-04T03:07:52.421Z,35.90
2017-11-04T03:10:21.164Z,38.87
2017-11-04T03:12:49.982Z,37.63
2017-11-04T03:15:18.627Z,42.57
2017-11-04T03:17:47.362Z,37.00
2017-11-04T03:20:16.039Z,34.13
2017-11-04T03:22:44.572Z,35.63
2017-11-04T03:25:13.318Z,35.10
2017-11-04T03:27:42.024Z,37.33
2017-11-04T03:30:10.791Z,35.40
2017-11-04T03:32:39.511Z,36.57
2017-11-04T03:35:08.282Z,38.80
2017-11-04T03:37:36.946Z,36.63
2017-11-04T03:40:05.308Z,38.73
2017-11-04T03:42:34.020Z,41.40
2017-11-04T03:45:02.712Z,37.93
2017-11-04T03:47:31.383Z,36.73
2017-11-04T03:50:00.082Z,38.90
2017-11-04T03:52:28.877Z,38.90
2017-11-04T03:54:57.866Z,38.67
2017-11-04T03:57:26.523Z,38.23
2017-11-04T03:59:55.180Z,39.77
2017-11-04T04:02:23.882Z,39.03
2017-11-04T04:04:52.626Z,42.77
2017-11-04T04:07:25.642Z,35.57
2017-11-04T04:09:59.339Z,37.83
2017-11-04T04:12:30.834Z,40.73
2017-11-04T04:14:59.720Z,40.53
2017-11-04T04:17:28.370Z,35.97
2017-11-04T04:19:57.044Z,39.17
2017-11-04T04:22:25.798Z,35.83
2017-11-04T04:24:54.465Z,35.67
2017-11-04T04:27:23.188Z,35.90
2017-11-04T04:29:51.841Z,35.13
2017-11-04T04:32:20.571Z,36.07
2017-11-04T04:34:49.310Z,33.33
2017-11-04T04:37:17.815Z,35.10
2017-11-04T04:39:45.909Z,38.07
2017-11-04T04:42:14.442Z,39.33
2017-11-04T04:44:43.061Z,36.53
2017-11-04T04:47:11.620Z,36.13
2017-11-04T04:49:41.693Z,33.03
2017-11-04T04:52:10.412Z,34.53
2017-11-04T04:54:39.173Z,34.40
2017-11-04T04:57:09.118Z,37.90
2017-11-04T04:59:37.817Z,39.40
2017-11-04T05:02:06.537Z,31.73
2017-11-04T05:04:35.263Z,37.20
2017-11-04T05:07:08.311Z,37.10
2017-11-04T05:09:37.001Z,47.67
2017-11-04T05:12:05.735Z,34.60
2017-11-04T05:14:34.389Z,35.33
2017-11-04T05:17:07.057Z,41.07
2017-11-04T05:19:35.705Z,38.37
2017-11-04T05:22:04.406Z,35.80
2017-11-04T05:24:33.071Z,28.70
2017-11-04T05:27:08.218Z,31.90
2017-11-04T05:29:37.126Z,33.20
2017-11-04T05:32:05.843Z,32.73
2017-11-04T05:34:34.493Z,37.47
2017-11-04T05:37:05.756Z,35.27
2017-11-04T05:39:34.466Z,38.67
2017-11-04T05:42:03.131Z,37.30
2017-11-04T05:44:31.826Z,38.87
2017-11-04T05:47:05.341Z,35.40
2017-11-04T05:49:33.997Z,38.63
2017-11-04T05:52:02.687Z,35.27
2017-11-04T05:54:31.351Z,37.93
2017-11-04T05:57:00.004Z,39.50
2017-11-04T05:59:28.681Z,41.20
2017-11-04T06:01:57.348Z,39.53
2017-11-04T06:04:25.912Z,39.93
2017-11-04T06:06:54.560Z,35.60
2017-11-04T06:09:23.323Z,37.73
2017-11-04T06:11:51.977Z,37.73
2017-11-04T06:14:20.665Z,34.07
2017-11-04T06:16:49.321Z,35.80
2017-11-04T06:19:18.004Z,49.40
2017-11-04T06:21:46.699Z,37.80
2017-11-04T06:24:15.350Z,41.53
2017-11-04T06:26:44.058Z,35.90
2017-11-04T06:29:12.714Z,36.07
2017-11-04T06:31:41.418Z,37.70
2017-11-04T06:34:10.131Z,33.97
2017-11-04T06:36:38.802Z,39.70
2017-11-04T06:39:07.496Z,36.33
2017-11-04T06:41:36.183Z,34.73
2017-11-04T06:44:04.871Z,34.43
2017-11-04T06:46:33.587Z,30.10
2017-11-04T06:49:02.262Z,49.10
2017-11-04T06:51:30.983Z,38.60
2017-11-04T06:53:59.631Z,34.67
2017-11-04T06:56:29.073Z,43.40
2017-11-04T06:58:57.760Z,40.87
2017-11-04T07:01:26.441Z,40.47
2017-11-04T07:03:55.198Z,38.20
2017-11-04T07:06:23.859Z,31.73
2017-11-04T07:08:52.574Z,38.53
2017-11-04T07:11:21.223Z,36.03
2017-11-04T07:13:49.874Z,37.40
2017-11-04T07:16:18.586Z,36.73
2017-11-04T07:18:47.225Z,38.20
2017-11-04T07:21:15.936Z,40.83
2017-11-04T07:23:44.600Z,37.30
2017-11-04T07:26:13.335Z,34.93
2017-11-04T07:28:42.189Z,34.73
2017-11-04T07:31:11.064Z,38.33
2017-11-04T07:33:39.797Z,38.00
2017-11-04T07:36:08.496Z,35.03
2017-11-04T07:38:37.477Z,33.97
2017-11-04T07:41:06.615Z,36.97
2017-11-04T07:43:35.585Z,39.63
2017-11-04T07:46:04.329Z,36.53
2017-11-04T07:48:33.037Z,37.37
2017-11-04T07:51:01.778Z,34.73
2017-11-04T07:53:30.467Z,40.93
2017-11-04T07:55:59.136Z,45.90
2017-11-04T07:58:27.868Z,37.53
2017-11-04T08:00:56.390Z,40.50
2017-11-04T08:03:25.063Z,37.60
2017-11-04T08:06:03.397Z,37.00
2017-11-04T08:08:33.259Z,34.83
2017-11-04T08:11:01.962Z,43.10
2017-11-04T08:13:30.470Z,45.70
2017-11-04T08:15:59.233Z,42.03
2017-11-04T08:18:27.883Z,40.63
2017-11-04T08:20:56.587Z,38.27
2017-11-04T08:23:25.239Z,38.20
2017-11-04T08:25:53.935Z,50.73
2017-11-04T08:28:22.581Z,39.47
2017-11-04T08:30:51.305Z,44.77
2017-11-04T08:33:20.121Z,43.63
2017-11-04T08:35:48.832Z,44.77
2017-11-04T08:38:17.533Z,40.97
2017-11-04T08:40:46.278Z,40.80
2017-11-04T08:43:14.847Z,43.57
2017-11-04T08:45:43.430Z,42.73
2017-11-04T08:48:11.945Z,41.10
2017-11-04T08:50:40.511Z,45.40
2017-11-04T08:53:09.028Z,41.10
2017-11-04T08:55:37.584Z,37.47
2017-11-04T08:58:06.248Z,43.73
2017-11-04T09:00:35.335Z,48.50
2017-11-04T09:03:05.962Z,40.77
2017-11-04T09:05:34.671Z,36.47
2017-11-04T09:08:03.357Z,45.20
2017-11-04T09:10:32.235Z,39.70
2017-11-04T09:13:00.927Z,43.43
2017-11-04T09:15:29.573Z,37.37
2017-11-04T09:17:58.227Z,37.57
2017-11-04T09:20:26.966Z,43.63
2017-11-04T09:22:55.677Z,40.27
2017-11-04T09:25:24.403Z,37.73
2017-11-04T09:27:53.255Z,41.93
2017-11-04T09:30:22.668Z,40.80
2017-11-04T09:32:51.911Z,42.90
2017-11-04T09:35:20.589Z,42.97
2017-11-04T09:37:49.332Z,40.93
2017-11-04T09:40:18.023Z,42.37
2017-11-04T09:42:46.735Z,42.70
2017-11-04T09:45:15.408Z,44.63
2017-11-04T09:47:44.259Z,40.50
2017-11-04T09:50:12.996Z,40.27
2017-11-04T09:52:47.810Z,41.87
2017-11-04T09:55:16.459Z,39.03
2017-11-04T09:57:45.142Z,38.50
2017-11-04T10:00:13.885Z,45.60
2017-11-04T10:02:42.544Z,39.40
2017-11-04T10:05:11.203Z,36.50
2017-11-04T10:07:40.226Z,41.90
2017-11-04T10:10:08.878Z,40.23
2017-11-04T10:12:37.609Z,43.43
2017-11-04T10:15:06.342Z,43.33
2017-11-04T10:17:35.066Z,43.10
2017-11-04T10:20:03.802Z,41.67
2017-11-04T10:22:32.534Z,44.40
2017-11-04T10:25:01.183Z,43.60
2017-11-04T10:27:30.292Z,44.53
2017-11-04T10:29:58.985Z,42.10
2017-11-04T10:32:27.681Z,47.77
2017-11-04T10:34:56.386Z,40.47
2017-11-04T10:37:25.039Z,48.60
2017-11-04T10:39:53.474Z,35.47
2017-11-04T10:42:21.643Z,44.00
2017-11-04T10:44:50.337Z,43.57
2017-11-04T10:47:18.930Z,43.63
2017-11-04T10:49:47.613Z,44.47
2017-11-04T10:52:16.314Z,38.60
2017-11-04T10:54:44.963Z,40.33
2017-11-04T10:57:13.668Z,46.63
2017-11-04T10:59:42.322Z,42.83
2017-11-04T11:02:10.996Z,42.10
2017-11-04T11:04:39.715Z,39.63
2017-11-04T11:07:11.168Z,40.97
2017-11-04T11:09:39.940Z,41.77
2017-11-04T11:12:08.474Z,38.10
2017-11-04T11:14:37.191Z,39.43
2017-11-04T11:17:07.960Z,46.10
2017-11-04T11:19:36.610Z,42.73
2017-11-04T11:22:05.314Z,33.87
2017-11-04T11:24:34.016Z,42.27
2017-11-04T11:27:08.984Z,42.53
2017-11-04T11:29:37.948Z,32.70
2017-11-04T11:32:06.751Z,33.40
2017-11-04T11:34:35.254Z,38.70
2017-11-04T11:37:08.388Z,32.50
2017-11-04T11:39:37.043Z,41.93
2017-11-04T11:42:05.801Z,35.90
2017-11-04T11:44:34.528Z,33.80
2017-11-04T11:47:07.094Z,33.73
2017-11-04T11:49:35.795Z,35.80
2017-11-04T11:52:04.617Z,34.83
2017-11-04T11:54:33.363Z,33.37
2017-11-04T11:57:05.620Z,36.53
2017-11-04T11:59:34.583Z,30.93
2017-11-04T12:02:03.290Z,33.50
2017-11-04T12:04:31.942Z,29.93
2017-11-04T12:07:00.642Z,37.93
2017-11-04T12:09:29.309Z,36.50
2017-11-04T12:11:58.097Z,35.00
2017-11-04T12:14:26.802Z,31.00
2017-11-04T12:16:55.455Z,31.30
2017-11-04T12:19:24.171Z,34.43
2017-11-04T12:21:52.856Z,31.97
2017-11-04T12:24:21.510Z,35.03
2017-11-04T12:26:50.223Z,34.70
2017-11-04T12:29:18.934Z,33.63
2017-11-04T12:31:47.769Z,37.60
2017-11-04T12:34:16.422Z,34.43
2017-11-04T12:36:45.155Z,30.50
2017-11-04T12:39:13.804Z,38.17
2017-11-04T12:41:42.535Z,31.00
2017-11-04T12:44:11.316Z,35.83
2017-11-04T12:46:39.978Z,31.30
2017-11-04T12:49:08.563Z,33.93
2017-11-04T12:51:37.261Z,33.33
2017-11-04T12:54:06.007Z,33.30
2017-11-04T12:56:34.687Z,35.43
2017-11-04T12:59:03.485Z,31.10
2017-11-04T13:01:32.147Z,39.47
2017-11-04T13:04:00.871Z,35.27
2017-11-04T13:06:29.539Z,50.83
2017-11-04T13:08:58.243Z,34.50
2017-11-04T13:11:26.892Z,43.07
2017-11-04T13:13:55.593Z,34.87
2017-11-04T13:16:24.250Z,37.33
2017-11-04T13:18:52.954Z,33.60
2017-11-04T13:21:21.310Z,40.47
2017-11-04T13:23:50.078Z,33.70
2017-11-04T13:26:18.736Z,37.57
2017-11-04T13:28:47.530Z,39.20
2017-11-04T13:31:16.212Z,32.17
2017-11-04T13:33:44.908Z,37.37
2017-11-04T13:36:13.655Z,35.00
2017-11-04T13:38:42.319Z,30.87
2017-11-04T13:41:11.032Z,38.00
2017-11-04T13:43:39.715Z,35.57
2017-11-04T13:46:08.463Z,30.70
2017-11-04T13:48:37.137Z,36.50
2017-11-04T13:51:05.850Z,36.53
2017-11-04T13:53:34.633Z,35.90
2017-11-04T13:56:03.341Z,33.07
2017-11-04T13:58:31.986Z,29.33
2017-11-04T14:01:05.042Z,30.00
2017-11-04T14:06:39.451Z,31.07
2017-11-04T14:09:26.825Z,32.80
2017-11-04T14:12:05.158Z,42.87
2017-11-04T14:14:49.317Z,33.50
2017-11-04T14:20:23.187Z,30.50
2017-11-04T14:23:06.968Z,35.60
2017-11-04T14:25:52.624Z,42.60
2017-11-04T14:28:22.351Z,47.90
2017-11-04T14:30:51.116Z,41.97
2017-11-04T14:33:19.771Z,42.40
2017-11-04T14:35:48.502Z,38.27
2017-11-04T14:38:17.167Z,34.63
2017-11-04T14:40:45.839Z,33.57
2017-11-04T14:43:14.564Z,33.00
2017-11-04T14:45:43.293Z,39.50
2017-11-04T14:48:11.998Z,36.57
2017-11-04T14:50:40.656Z,36.00
2017-11-04T14:53:09.363Z,38.83
2017-11-04T14:55:38.039Z,36.80
2017-11-04T14:58:06.563Z,44.90
2017-11-04T15:00:35.268Z,35.30
2017-11-04T15:03:03.984Z,34.93
2017-11-04T15:05:32.670Z,35.10
2017-11-04T15:08:01.295Z,39.93
2017-11-04T15:10:29.959Z,43.40
2017-11-04T15:12:58.670Z,34.80
2017-11-04T15:15:27.343Z,44.10
2017-11-04T15:17:56.137Z,41.83
2017-11-04T15:20:24.806Z,35.90
2017-11-04T15:22:53.483Z,36.67
2017-11-04T15:25:22.189Z,47.93
2017-11-04T15:27:50.931Z,41.73
2017-11-04T15:30:19.716Z,37.47
2017-11-04T15:32:48.422Z,37.33
2017-11-04T15:35:17.155Z,40.87
2017-11-04T15:37:45.814Z,37.00
2017-11-04T15:40:14.509Z,37.67
2017-11-04T15:42:43.261Z,41.90
2017-11-04T15:45:11.982Z,44.57
2017-11-04T15:47:40.707Z,35.73
2017-11-04T15:50:09.084Z,39.10
2017-11-04T15:52:37.745Z,38.80
2017-11-04T15:55:06.479Z,33.53
2017-11-04T15:57:35.182Z,32.80
2017-11-04T16:00:03.935Z,38.60
2017-11-04T16:02:32.663Z,37.47
2017-11-04T16:05:01.379Z,37.20
2017-11-04T16:07:30.043Z,34.70
2017-11-04T16:09:58.718Z,35.47
2017-11-04T16:12:27.405Z,37.43
2017-11-04T16:14:56.066Z,34.43
2017-11-04T16:17:24.796Z,36.70
2017-11-04T16:19:54.907Z,34.87
2017-11-04T16:22:25.357Z,38.40
2017-11-04T16:24:54.069Z,32.83
2017-11-04T16:27:22.802Z,33.40
2017-11-04T16:29:51.566Z,41.57
2017-11-04T16:32:20.303Z,35.47
2017-11-04T16:34:48.970Z,36.27
2017-11-04T16:37:17.644Z,32.30
2017-11-04T16:39:46.356Z,40.20
2017-11-04T16:42:20.981Z,34.87
2017-11-04T16:45:01.804Z,35.37
2017-11-04T16:47:33.362Z,34.30
2017-11-04T16:50:07.017Z,36.37
2017-11-04T16:52:35.864Z,38.80
2017-11-04T16:55:05.148Z,33.70
2017-11-04T16:57:33.834Z,35.70
2017-11-04T17:00:02.573Z,39.33
2017-11-04T17:02:31.235Z,33.20
2017-11-04T17:04:59.731Z,39.43
2017-11-04T17:07:28.404Z,31.77
2017-11-04T17:10:10.095Z,37.00
2017-11-04T17:12:54.829Z,37.67
2017-11-04T17:15:44.546Z,36.90
2017-11-04T17:18:19.852Z,35.17
2017-11-04T17:23:41.528Z,41.90
2017-11-04T17:26:10.954Z,37.97
2017-11-04T17:28:51.607Z,35.27
2017-11-04T17:31:22.989Z,35.10
2017-11-04T17:34:05.796Z,36.27
2017-11-04T17:36:43.141Z,39.57
2017-11-04T17:39:19.303Z,36.53
2017-11-04T17:41:48.616Z,32.00
2017-11-04T17:44:20.761Z,34.80
2017-11-04T17:46:58.428Z,36.63
2017-11-04T17:49:37.979Z,40.20
2017-11-04T17:52:11.175Z,36.10
2017-11-04T17:54:52.064Z,35.87
2017-11-04T17:57:32.788Z,45.33
2017-11-04T18:00:12.002Z,38.93
2017-11-04T18:02:50.669Z,38.23
2017-11-04T18:05:33.282Z,40.90
2017-11-04T18:08:17.390Z,39.03
2017-11-04T18:10:57.131Z,40.40
2017-11-04T18:13:40.192Z,38.30
2017-11-04T18:16:21.956Z,41.83
2017-11-04T18:18:59.864Z,31.20
2017-11-04T18:21:36.069Z,41.13
2017-11-04T18:24:14.444Z,35.47
2017-11-04T18:26:52.313Z,36.20
2017-11-04T18:29:31.561Z,41.47
2017-11-04T18:32:10.580Z,37.70
2017-11-04T18:34:53.270Z,47.13
2017-11-04T18:37:28.431Z,33.53
2017-11-04T18:40:03.774Z,39.80
2017-11-04T18:42:43.595Z,35.43
2017-11-04T18:45:25.570Z,34.50
2017-11-04T18:47:56.196Z,32.53
2017-11-04T18:50:24.911Z,34.43
2017-11-04T18:52:57.330Z,33.37
2017-11-04T18:55:26.124Z,37.10
2017-11-04T18:57:54.867Z,37.97
2017-11-04T19:00:32.465Z,36.33
2017-11-04T19:03:13.126Z,43.13
2017-11-04T19:05:52.076Z,35.53
2017-11-04T19:08:34.243Z,39.23
2017-11-04T19:11:15.085Z,36.53
2017-11-04T19:13:57.225Z,51.27
2017-11-04T19:16:37.180Z,38.20
2017-11-04T19:19:12.785Z,35.53
2017-11-04T19:21:49.684Z,36.27
2017-11-04T19:24:23.494Z,34.33
2017-11-04T19:26:59.190Z,34.80
2017-11-04T19:29:37.555Z,34.87
2017-11-04T19:32:09.795Z,43.37
2017-11-04T19:34:53.864Z,30.90
2017-11-04T19:37:31.148Z,35.60
2017-11-04T19:40:13.977Z,38.53
2017-11-04T19:42:49.776Z,35.23
2017-11-04T19:45:27.483Z,38.03
2017-11-04T19:48:02.568Z,33.23
2017-11-04T19:50:34.684Z,39.50
2017-11-04T19:53:16.808Z,34.67
2017-11-04T19:55:56.392Z,35.43
2017-11-04T19:58:29.176Z,30.60
2017-11-04T20:01:03.367Z,37.83
2017-11-04T20:03:33.294Z,35.00
2017-11-04T20:06:10.557Z,33.40
2017-11-04T20:08:51.641Z,36.50
2017-11-04T20:11:31.392Z,38.20
2017-11-04T20:14:11.759Z,40.10
2017-11-04T20:16:48.319Z,30.83
2017-11-04T20:19:29.511Z,38.20
2017-11-04T20:22:09.358Z,45.33
2017-11-04T20:24:50.726Z,41.10
2017-11-04T20:27:35.202Z,35.07
2017-11-04T20:30:20.803Z,37.37
2017-11-04T20:33:04.252Z,39.97
2017-11-04T20:35:50.440Z,36.03
2017-11-04T20:41:27.525Z,37.53
2017-11-04T20:44:11.912Z,35.00
2017-11-04T20:47:02.234Z,36.07
2017-11-04T20:49:47.467Z,30.67
2017-11-04T20:52:31.815Z,39.43
2017-11-04T20:55:02.884Z,38.20
2017-11-04T20:57:32.011Z,31.47
2017-11-04T21:00:00.714Z,31.37
2017-11-04T21:02:29.442Z,34.13
2017-11-04T21:04:58.114Z,34.47
2017-11-04T21:07:26.894Z,33.30
2017-11-04T21:09:55.548Z,34.50
2017-11-04T21:12:24.234Z,34.80
2017-11-04T21:14:52.902Z,32.33
2017-11-04T21:17:21.599Z,29.83
2017-11-04T21:19:50.245Z,42.13
2017-11-04T21:22:18.987Z,32.10
2017-11-04T21:24:49.595Z,35.20
2017-11-04T21:27:19.603Z,29.27
2017-11-04T21:29:48.395Z,31.20
2017-11-04T21:32:18.080Z,36.67
2017-11-04T21:34:46.794Z,33.77
2017-11-04T21:37:15.454Z,31.70
2017-11-04T21:39:44.185Z,29.30
2017-11-04T21:42:12.831Z,31.17
2017-11-04T21:44:41.483Z,31.40
2017-11-04T21:47:10.174Z,30.33
2017-11-04T21:49:38.829Z,30.53
2017-11-04T21:52:07.534Z,27.57
2017-11-04T21:54:36.213Z,29.07
2017-11-04T21:57:08.591Z,27.80
2017-11-04T21:59:37.255Z,29.23
2017-11-04T22:02:05.959Z,31.83
2017-11-04T22:04:34.622Z,28.57
2017-11-04T22:07:03.363Z,30.10
2017-11-04T22:09:32.051Z,27.70
2017-11-04T22:12:00.745Z,30.47
2017-11-04T22:14:29.451Z,31.30
2017-11-04T22:16:58.147Z,28.47
2017-11-04T22:19:26.806Z,35.70
2017-11-04T22:21:55.535Z,26.20
2017-11-04T22:24:24.198Z,33.90
2017-11-04T22:26:52.863Z,31.97
2017-11-04T22:29:21.610Z,26.03
2017-11-04T22:31:50.277Z,27.37
2017-11-04T22:34:18.987Z,26.80
2017-11-04T22:36:47.646Z,27.10
2017-11-04T22:39:16.414Z,28.83
2017-11-04T22:41:45.098Z,27.50
2017-11-04T22:44:13.743Z,26.93
2017-11-04T22:46:42.463Z,27.13
2017-11-04T22:49:11.177Z,22.77
2017-11-04T22:51:39.837Z,26.57
2017-11-04T22:54:08.554Z,23.90
2017-11-04T22:56:37.085Z,26.50
2017-11-04T22:59:05.766Z,23.80
2017-11-04T23:01:34.503Z,23.80
2017-11-04T23:04:03.207Z,23.07
2017-11-04T23:06:32.017Z,21.67
2017-11-04T23:09:00.722Z,27.17
2017-11-04T23:11:29.391Z,28.77
2017-11-04T23:13:58.102Z,24.30
2017-11-04T23:16:26.801Z,21.50
2017-11-04T23:18:55.625Z,22.17
2017-11-04T23:21:24.327Z,24.27
2017-11-04T23:23:52.978Z,19.47
2017-11-04T23:26:21.638Z,25.40
2017-11-04T23:28:50.357Z,24.23
2017-11-04T23:31:19.302Z,25.20
2017-11-04T23:33:48.198Z,20.73
2017-11-04T23:36:16.955Z,19.83
2017-11-04T23:38:45.627Z,18.27
2017-11-04T23:41:14.339Z,23.33
2017-11-04T23:43:43.002Z,18.30
2017-11-04T23:46:11.658Z,19.27
2017-11-04T23:48:40.361Z,20.90
2017-11-04T23:51:09.096Z,18.20
2017-11-04T23:53:37.758Z,23.20
2017-11-04T23:56:06.272Z,23.70
2017-11-04T23:58:35.001Z,17.40
